sensor_id;sensor_type;location;lat;lon;timestamp;P1;durP1;ratioP1;P2;durP2;ratioP2
23044;SDS011;11690;51.716;23.066;2024-01-15T00:01:02;31.10;;;11.00;;
23044;SDS011;11690;51.716;23.066;2024-01-15T00:03:50;24.87;;;9.97;;
23044;SDS011;11690;51.716;23.066;2024-01-15T00:06:18;26.70;;;10.47;;
23044;SDS011;11690;51.716;23.066;2024-01-15T00:08:45;19.23;;;10.30;;
23044;SDS011;11690;51.716;23.066;2024-01-15T00:11:12;21.47;;;10.10;;
23044;SDS011;11690;51.716;23.066;2024-01-15T00:13:40;21.93;;;9.97;;
23044;SDS011;11690;51.716;23.066;2024-01-15T00:16:07;25.23;;;10.40;;
23044;SDS011;11690;51.716;23.066;2024-01-15T00:18:34;28.30;;;12.23;;
23044;SDS011;11690;51.716;23.066;2024-01-15T00:21:01;25.87;;;10.27;;
23044;SDS011;11690;51.716;23.066;2024-01-15T00:23:29;23.43;;;9.77;;
23044;SDS011;11690;51.716;23.066;2024-01-15T00:25:56;30.63;;;10.47;;
23044;SDS011;11690;51.716;23.066;2024-01-15T00:28:23;23.83;;;9.77;;
23044;SDS011;11690;51.716;23.066;2024-01-15T00:30:50;22.57;;;11.13;;
23044;SDS011;11690;51.716;23.066;2024-01-15T00:33:17;20.90;;;8.57;;
23044;SDS011;11690;51.716;23.066;2024-01-15T00:35:44;23.90;;;10.03;;
23044;SDS011;11690;51.716;23.066;2024-01-15T00:38:12;20.30;;;9.53;;
23044;SDS011;11690;51.716;23.066;2024-01-15T00:40:39;13.53;;;7.43;;
23044;SDS011;11690;51.716;23.066;2024-01-15T00:43:06;18.20;;;8.27;;
23044;SDS011;11690;51.716;23.066;2024-01-15T00:45:34;20.47;;;8.60;;
23044;SDS011;11690;51.716;23.066;2024-01-15T00:48:02;15.33;;;8.37;;
23044;SDS011;11690;51.716;23.066;2024-01-15T00:50:29;15.53;;;7.53;;
23044;SDS011;11690;51.716;23.066;2024-01-15T00:52:56;14.70;;;8.43;;
23044;SDS011;11690;51.716;23.066;2024-01-15T00:55:23;26.33;;;10.47;;
23044;SDS011;11690;51.716;23.066;2024-01-15T00:57:51;17.23;;;7.73;;
23044;SDS011;11690;51.716;23.066;2024-01-15T01:00:18;17.63;;;7.90;;
23044;SDS011;11690;51.716;23.066;2024-01-15T01:02:45;16.20;;;8.43;;
23044;SDS011;11690;51.716;23.066;2024-01-15T01:05:12;17.57;;;8.43;;
23044;SDS011;11690;51.716;23.066;2024-01-15T01:07:40;15.63;;;8.43;;
23044;SDS011;11690;51.716;23.066;2024-01-15T01:10:07;13.77;;;7.27;;
23044;SDS011;11690;51.716;23.066;2024-01-15T01:12:35;12.90;;;7.57;;
23044;SDS011;11690;51.716;23.066;2024-01-15T01:15:02;14.37;;;8.03;;
23044;SDS011;11690;51.716;23.066;2024-01-15T01:17:29;18.90;;;8.83;;
23044;SDS011;11690;51.716;23.066;2024-01-15T01:19:57;16.80;;;8.10;;
23044;SDS011;11690;51.716;23.066;2024-01-15T01:22:25;18.33;;;8.03;;
23044;SDS011;11690;51.716;23.066;2024-01-15T01:24:52;17.90;;;8.53;;
23044;SDS011;11690;51.716;23.066;2024-01-15T01:27:19;14.70;;;8.07;;
23044;SDS011;11690;51.716;23.066;2024-01-15T01:29:47;20.83;;;8.73;;
23044;SDS011;11690;51.716;23.066;2024-01-15T01:32:14;22.90;;;9.50;;
23044;SDS011;11690;51.716;23.066;2024-01-15T01:34:41;20.53;;;8.33;;
23044;SDS011;11690;51.716;23.066;2024-01-15T01:37:12;18.37;;;9.13;;
23044;SDS011;11690;51.716;23.066;2024-01-15T01:39:40;20.20;;;9.40;;
23044;SDS011;11690;51.716;23.066;2024-01-15T01:42:08;25.10;;;10.10;;
23044;SDS011;11690;51.716;23.066;2024-01-15T01:44:36;22.47;;;10.20;;
23044;SDS011;11690;51.716;23.066;2024-01-15T01:47:03;22.47;;;12.50;;
23044;SDS011;11690;51.716;23.066;2024-01-15T01:49:30;22.10;;;12.03;;
23044;SDS011;11690;51.716;23.066;2024-01-15T01:51:59;24.47;;;10.90;;
23044;SDS011;11690;51.716;23.066;2024-01-15T01:54:28;25.17;;;11.60;;
23044;SDS011;11690;51.716;23.066;2024-01-15T01:56:56;21.20;;;11.10;;
23044;SDS011;11690;51.716;23.066;2024-01-15T01:59:27;22.97;;;12.20;;
23044;SDS011;11690;51.716;23.066;2024-01-15T02:01:54;28.77;;;12.87;;
23044;SDS011;11690;51.716;23.066;2024-01-15T02:04:22;30.60;;;12.53;;
23044;SDS011;11690;51.716;23.066;2024-01-15T02:06:51;27.30;;;11.47;;
23044;SDS011;11690;51.716;23.066;2024-01-15T02:09:18;30.87;;;13.20;;
23044;SDS011;11690;51.716;23.066;2024-01-15T02:11:46;32.10;;;14.10;;
23044;SDS011;11690;51.716;23.066;2024-01-15T02:14:14;30.53;;;13.27;;
23044;SDS011;11690;51.716;23.066;2024-01-15T02:16:42;33.10;;;14.77;;
23044;SDS011;11690;51.716;23.066;2024-01-15T02:19:15;27.07;;;12.97;;
23044;SDS011;11690;51.716;23.066;2024-01-15T02:21:47;60.40;;;20.03;;
23044;SDS011;11690;51.716;23.066;2024-01-15T02:24:14;32.97;;;14.43;;
23044;SDS011;11690;51.716;23.066;2024-01-15T02:26:41;39.33;;;16.17;;
23044;SDS011;11690;51.716;23.066;2024-01-15T02:29:08;40.00;;;17.07;;
23044;SDS011;11690;51.716;23.066;2024-01-15T02:31:36;47.97;;;17.33;;
23044;SDS011;11690;51.716;23.066;2024-01-15T02:34:04;40.00;;;16.93;;
23044;SDS011;11690;51.716;23.066;2024-01-15T02:36:31;36.37;;;16.60;;
23044;SDS011;11690;51.716;23.066;2024-01-15T02:38:58;38.47;;;15.97;;
23044;SDS011;11690;51.716;23.066;2024-01-15T02:41:26;42.87;;;17.33;;
23044;SDS011;11690;51.716;23.066;2024-01-15T02:43:53;36.90;;;16.27;;
23044;SDS011;11690;51.716;23.066;2024-01-15T02:46:20;40.73;;;20.37;;
23044;SDS011;11690;51.716;23.066;2024-01-15T02:48:47;46.87;;;17.97;;
23044;SDS011;11690;51.716;23.066;2024-01-15T02:51:15;40.30;;;15.60;;
23044;SDS011;11690;51.716;23.066;2024-01-15T02:53:42;31.63;;;15.20;;
23044;SDS011;11690;51.716;23.066;2024-01-15T02:56:09;35.23;;;15.37;;
23044;SDS011;11690;51.716;23.066;2024-01-15T02:58:36;33.07;;;15.67;;
23044;SDS011;11690;51.716;23.066;2024-01-15T03:01:04;51.13;;;17.37;;
23044;SDS011;11690;51.716;23.066;2024-01-15T03:03:31;33.90;;;14.73;;
23044;SDS011;11690;51.716;23.066;2024-01-15T03:06:01;34.77;;;15.67;;
23044;SDS011;11690;51.716;23.066;2024-01-15T03:08:28;46.43;;;20.37;;
23044;SDS011;11690;51.716;23.066;2024-01-15T03:10:56;51.27;;;17.63;;
23044;SDS011;11690;51.716;23.066;2024-01-15T03:13:23;31.10;;;13.57;;
23044;SDS011;11690;51.716;23.066;2024-01-15T03:15:50;39.17;;;15.93;;
23044;SDS011;11690;51.716;23.066;2024-01-15T03:18:17;37.37;;;16.37;;
23044;SDS011;11690;51.716;23.066;2024-01-15T03:20:45;46.47;;;18.20;;
23044;SDS011;11690;51.716;23.066;2024-01-15T03:23:12;34.80;;;14.30;;
23044;SDS011;11690;51.716;23.066;2024-01-15T03:25:39;31.37;;;13.43;;
23044;SDS011;11690;51.716;23.066;2024-01-15T03:28:06;37.77;;;13.97;;
23044;SDS011;11690;51.716;23.066;2024-01-15T03:30:33;44.17;;;18.00;;
23044;SDS011;11690;51.716;23.066;2024-01-15T03:33:01;35.47;;;15.23;;
23044;SDS011;11690;51.716;23.066;2024-01-15T03:35:28;32.60;;;13.60;;
23044;SDS011;11690;51.716;23.066;2024-01-15T03:37:57;34.20;;;14.10;;
23044;SDS011;11690;51.716;23.066;2024-01-15T03:40:24;34.90;;;13.60;;
23044;SDS011;11690;51.716;23.066;2024-01-15T03:42:53;33.20;;;13.90;;
23044;SDS011;11690;51.716;23.066;2024-01-15T03:45:21;25.90;;;12.70;;
23044;SDS011;11690;51.716;23.066;2024-01-15T03:47:48;37.23;;;14.10;;
23044;SDS011;11690;51.716;23.066;2024-01-15T03:50:15;38.00;;;14.40;;
23044;SDS011;11690;51.716;23.066;2024-01-15T03:52:42;38.10;;;14.67;;
23044;SDS011;11690;51.716;23.066;2024-01-15T03:55:10;37.47;;;14.93;;
23044;SDS011;11690;51.716;23.066;2024-01-15T03:57:37;36.80;;;14.53;;
23044;SDS011;11690;51.716;23.066;2024-01-15T04:00:06;28.53;;;13.27;;
23044;SDS011;11690;51.716;23.066;2024-01-15T04:02:34;33.10;;;16.90;;
23044;SDS011;11690;51.716;23.066;2024-01-15T04:05:01;24.00;;;12.73;;
23044;SDS011;11690;51.716;23.066;2024-01-15T04:07:28;34.00;;;13.90;;
23044;SDS011;11690;51.716;23.066;2024-01-15T04:09:56;25.77;;;12.87;;
23044;SDS011;11690;51.716;23.066;2024-01-15T04:12:23;26.60;;;12.97;;
23044;SDS011;11690;51.716;23.066;2024-01-15T04:14:50;28.60;;;12.63;;
23044;SDS011;11690;51.716;23.066;2024-01-15T04:17:17;24.20;;;12.30;;
23044;SDS011;11690;51.716;23.066;2024-01-15T04:19:44;28.53;;;12.57;;
23044;SDS011;11690;51.716;23.066;2024-01-15T04:22:12;40.30;;;14.80;;
23044;SDS011;11690;51.716;23.066;2024-01-15T04:24:39;36.60;;;18.13;;
23044;SDS011;11690;51.716;23.066;2024-01-15T04:27:06;85.70;;;34.17;;
23044;SDS011;11690;51.716;23.066;2024-01-15T04:29:34;84.27;;;32.43;;
23044;SDS011;11690;51.716;23.066;2024-01-15T04:32:05;51.97;;;24.03;;
23044;SDS011;11690;51.716;23.066;2024-01-15T04:34:33;29.73;;;14.37;;
23044;SDS011;11690;51.716;23.066;2024-01-15T04:37:00;40.37;;;16.77;;
23044;SDS011;11690;51.716;23.066;2024-01-15T04:39:27;30.77;;;13.60;;
23044;SDS011;11690;51.716;23.066;2024-01-15T04:41:54;27.70;;;12.27;;
23044;SDS011;11690;51.716;23.066;2024-01-15T04:44:22;27.70;;;13.10;;
23044;SDS011;11690;51.716;23.066;2024-01-15T04:46:49;30.13;;;12.93;;
23044;SDS011;11690;51.716;23.066;2024-01-15T04:49:16;28.20;;;12.70;;
23044;SDS011;11690;51.716;23.066;2024-01-15T04:51:43;34.50;;;13.60;;
23044;SDS011;11690;51.716;23.066;2024-01-15T04:54:11;30.67;;;13.10;;
23044;SDS011;11690;51.716;23.066;2024-01-15T04:56:38;32.20;;;12.30;;
23044;SDS011;11690;51.716;23.066;2024-01-15T04:59:05;42.80;;;16.43;;
23044;SDS011;11690;51.716;23.066;2024-01-15T05:01:32;38.27;;;13.43;;
23044;SDS011;11690;51.716;23.066;2024-01-15T05:04:00;31.17;;;15.80;;
23044;SDS011;11690;51.716;23.066;2024-01-15T05:06:27;25.03;;;12.17;;
23044;SDS011;11690;51.716;23.066;2024-01-15T05:08:55;26.00;;;11.37;;
23044;SDS011;11690;51.716;23.066;2024-01-15T05:11:22;24.00;;;11.57;;
23044;SDS011;11690;51.716;23.066;2024-01-15T05:13:49;24.07;;;10.87;;
23044;SDS011;11690;51.716;23.066;2024-01-15T05:16:16;31.60;;;13.93;;
23044;SDS011;11690;51.716;23.066;2024-01-15T05:18:44;25.73;;;12.97;;
23044;SDS011;11690;51.716;23.066;2024-01-15T05:21:11;31.43;;;14.27;;
23044;SDS011;11690;51.716;23.066;2024-01-15T05:23:39;25.87;;;12.17;;
23044;SDS011;11690;51.716;23.066;2024-01-15T05:26:06;29.73;;;11.57;;
23044;SDS011;11690;51.716;23.066;2024-01-15T05:28:35;22.23;;;11.30;;
23044;SDS011;11690;51.716;23.066;2024-01-15T05:31:02;29.33;;;12.17;;
23044;SDS011;11690;51.716;23.066;2024-01-15T05:33:31;33.70;;;16.73;;
23044;SDS011;11690;51.716;23.066;2024-01-15T05:35:58;28.20;;;14.10;;
23044;SDS011;11690;51.716;23.066;2024-01-15T05:38:26;25.47;;;11.73;;
23044;SDS011;11690;51.716;23.066;2024-01-15T05:40:54;28.70;;;12.20;;
23044;SDS011;11690;51.716;23.066;2024-01-15T05:43:21;29.87;;;12.53;;
23044;SDS011;11690;51.716;23.066;2024-01-15T05:45:48;24.20;;;11.03;;
23044;SDS011;11690;51.716;23.066;2024-01-15T05:48:15;18.70;;;10.33;;
23044;SDS011;11690;51.716;23.066;2024-01-15T05:50:42;29.97;;;12.40;;
23044;SDS011;11690;51.716;23.066;2024-01-15T05:53:10;19.93;;;10.67;;
23044;SDS011;11690;51.716;23.066;2024-01-15T05:55:37;23.77;;;10.73;;
23044;SDS011;11690;51.716;23.066;2024-01-15T05:58:05;24.97;;;11.20;;
23044;SDS011;11690;51.716;23.066;2024-01-15T06:00:32;21.00;;;10.13;;
23044;SDS011;11690;51.716;23.066;2024-01-15T06:03:03;29.27;;;11.40;;
23044;SDS011;11690;51.716;23.066;2024-01-15T06:05:30;101.00;;;41.80;;
23044;SDS011;11690;51.716;23.066;2024-01-15T06:07:58;21.93;;;11.43;;
23044;SDS011;11690;51.716;23.066;2024-01-15T06:10:25;22.47;;;10.30;;
23044;SDS011;11690;51.716;23.066;2024-01-15T06:12:52;18.33;;;10.30;;
23044;SDS011;11690;51.716;23.066;2024-01-15T06:15:19;22.63;;;10.07;;
23044;SDS011;11690;51.716;23.066;2024-01-15T06:17:47;22.27;;;10.67;;
23044;SDS011;11690;51.716;23.066;2024-01-15T06:20:14;22.27;;;10.93;;
23044;SDS011;11690;51.716;23.066;2024-01-15T06:22:41;21.87;;;10.27;;
23044;SDS011;11690;51.716;23.066;2024-01-15T06:25:08;28.03;;;12.97;;
23044;SDS011;11690;51.716;23.066;2024-01-15T06:27:36;28.90;;;11.70;;
23044;SDS011;11690;51.716;23.066;2024-01-15T06:30:04;45.33;;;14.97;;
23044;SDS011;11690;51.716;23.066;2024-01-15T06:32:32;29.10;;;11.87;;
23044;SDS011;11690;51.716;23.066;2024-01-15T06:34:59;46.47;;;14.90;;
23044;SDS011;11690;51.716;23.066;2024-01-15T06:37:26;24.63;;;10.07;;
23044;SDS011;11690;51.716;23.066;2024-01-15T06:39:53;52.37;;;23.43;;
23044;SDS011;11690;51.716;23.066;2024-01-15T06:42:21;28.33;;;11.93;;
23044;SDS011;11690;51.716;23.066;2024-01-15T06:44:48;56.27;;;22.20;;
23044;SDS011;11690;51.716;23.066;2024-01-15T06:47:16;41.17;;;14.17;;
23044;SDS011;11690;51.716;23.066;2024-01-15T06:49:44;32.30;;;14.57;;
23044;SDS011;11690;51.716;23.066;2024-01-15T06:52:11;21.50;;;10.47;;
23044;SDS011;11690;51.716;23.066;2024-01-15T06:54:39;19.67;;;10.50;;
23044;SDS011;11690;51.716;23.066;2024-01-15T06:57:06;29.17;;;10.50;;
23044;SDS011;11690;51.716;23.066;2024-01-15T06:59:34;29.63;;;11.63;;
23044;SDS011;11690;51.716;23.066;2024-01-15T07:02:02;25.77;;;12.33;;
23044;SDS011;11690;51.716;23.066;2024-01-15T07:04:29;22.87;;;10.73;;
23044;SDS011;11690;51.716;23.066;2024-01-15T07:06:57;24.97;;;10.00;;
23044;SDS011;11690;51.716;23.066;2024-01-15T07:09:24;24.13;;;11.07;;
23044;SDS011;11690;51.716;23.066;2024-01-15T07:11:52;21.03;;;10.67;;
23044;SDS011;11690;51.716;23.066;2024-01-15T07:14:19;22.80;;;12.07;;
23044;SDS011;11690;51.716;23.066;2024-01-15T07:16:46;20.87;;;10.10;;
23044;SDS011;11690;51.716;23.066;2024-01-15T07:19:14;17.07;;;8.87;;
23044;SDS011;11690;51.716;23.066;2024-01-15T07:21:42;21.27;;;9.93;;
23044;SDS011;11690;51.716;23.066;2024-01-15T07:24:10;20.47;;;8.80;;
23044;SDS011;11690;51.716;23.066;2024-01-15T07:26:37;17.67;;;9.17;;
23044;SDS011;11690;51.716;23.066;2024-01-15T07:29:04;22.10;;;11.07;;
23044;SDS011;11690;51.716;23.066;2024-01-15T07:31:32;24.23;;;10.60;;
23044;SDS011;11690;51.716;23.066;2024-01-15T07:33:59;23.77;;;10.40;;
23044;SDS011;11690;51.716;23.066;2024-01-15T07:36:27;26.00;;;12.27;;
23044;SDS011;11690;51.716;23.066;2024-01-15T07:38:54;34.73;;;13.50;;
23044;SDS011;11690;51.716;23.066;2024-01-15T07:41:21;24.80;;;10.37;;
23044;SDS011;11690;51.716;23.066;2024-01-15T07:43:50;22.73;;;9.57;;
23044;SDS011;11690;51.716;23.066;2024-01-15T07:46:17;20.97;;;10.17;;
23044;SDS011;11690;51.716;23.066;2024-01-15T07:48:44;24.70;;;10.53;;
23044;SDS011;11690;51.716;23.066;2024-01-15T07:51:12;15.00;;;8.77;;
23044;SDS011;11690;51.716;23.066;2024-01-15T07:53:39;19.33;;;9.27;;
23044;SDS011;11690;51.716;23.066;2024-01-15T07:56:06;18.57;;;9.03;;
23044;SDS011;11690;51.716;23.066;2024-01-15T07:58:33;18.43;;;9.67;;
23044;SDS011;11690;51.716;23.066;2024-01-15T08:01:01;17.20;;;8.87;;
23044;SDS011;11690;51.716;23.066;2024-01-15T08:03:28;15.80;;;9.60;;
23044;SDS011;11690;51.716;23.066;2024-01-15T08:05:56;29.13;;;10.43;;
23044;SDS011;11690;51.716;23.066;2024-01-15T08:08:25;24.17;;;10.47;;
23044;SDS011;11690;51.716;23.066;2024-01-15T08:10:55;21.20;;;10.30;;
23044;SDS011;11690;51.716;23.066;2024-01-15T08:13:22;21.20;;;9.70;;
23044;SDS011;11690;51.716;23.066;2024-01-15T08:15:50;20.83;;;9.83;;
23044;SDS011;11690;51.716;23.066;2024-01-15T08:18:17;30.53;;;11.90;;
23044;SDS011;11690;51.716;23.066;2024-01-15T08:20:44;24.00;;;9.57;;
23044;SDS011;11690;51.716;23.066;2024-01-15T08:23:12;29.87;;;18.13;;
23044;SDS011;11690;51.716;23.066;2024-01-15T08:25:39;18.80;;;8.70;;
23044;SDS011;11690;51.716;23.066;2024-01-15T08:28:06;15.07;;;8.37;;
23044;SDS011;11690;51.716;23.066;2024-01-15T08:30:35;18.73;;;8.43;;
23044;SDS011;11690;51.716;23.066;2024-01-15T08:33:02;17.50;;;8.17;;
23044;SDS011;11690;51.716;23.066;2024-01-15T08:35:37;16.67;;;7.70;;
23044;SDS011;11690;51.716;23.066;2024-01-15T08:38:04;13.17;;;6.90;;
23044;SDS011;11690;51.716;23.066;2024-01-15T08:40:32;17.13;;;8.43;;
23044;SDS011;11690;51.716;23.066;2024-01-15T08:42:59;20.10;;;8.00;;
23044;SDS011;11690;51.716;23.066;2024-01-15T08:45:27;18.67;;;8.27;;
23044;SDS011;11690;51.716;23.066;2024-01-15T08:47:57;17.60;;;8.10;;
23044;SDS011;11690;51.716;23.066;2024-01-15T08:50:24;17.03;;;7.83;;
23044;SDS011;11690;51.716;23.066;2024-01-15T08:52:51;28.77;;;10.33;;
23044;SDS011;11690;51.716;23.066;2024-01-15T08:55:19;18.37;;;9.10;;
23044;SDS011;11690;51.716;23.066;2024-01-15T08:57:46;18.93;;;7.53;;
23044;SDS011;11690;51.716;23.066;2024-01-15T09:00:13;14.40;;;7.60;;
23044;SDS011;11690;51.716;23.066;2024-01-15T09:02:41;13.80;;;7.70;;
23044;SDS011;11690;51.716;23.066;2024-01-15T09:05:09;18.10;;;7.77;;
23044;SDS011;11690;51.716;23.066;2024-01-15T09:07:36;14.93;;;8.30;;
23044;SDS011;11690;51.716;23.066;2024-01-15T09:10:04;11.27;;;6.97;;
23044;SDS011;11690;51.716;23.066;2024-01-15T09:12:31;12.80;;;7.53;;
23044;SDS011;11690;51.716;23.066;2024-01-15T09:14:58;18.03;;;9.13;;
23044;SDS011;11690;51.716;23.066;2024-01-15T09:17:25;26.17;;;9.83;;
23044;SDS011;11690;51.716;23.066;2024-01-15T09:19:55;20.10;;;11.47;;
23044;SDS011;11690;51.716;23.066;2024-01-15T09:22:22;52.63;;;19.83;;
23044;SDS011;11690;51.716;23.066;2024-01-15T09:24:49;73.80;;;28.03;;
23044;SDS011;11690;51.716;23.066;2024-01-15T09:27:16;31.20;;;17.17;;
23044;SDS011;11690;51.716;23.066;2024-01-15T09:29:44;46.77;;;21.07;;
23044;SDS011;11690;51.716;23.066;2024-01-15T09:32:12;28.93;;;16.30;;
23044;SDS011;11690;51.716;23.066;2024-01-15T09:34:40;17.53;;;10.10;;
23044;SDS011;11690;51.716;23.066;2024-01-15T09:37:08;20.57;;;12.30;;
23044;SDS011;11690;51.716;23.066;2024-01-15T09:39:40;20.30;;;11.73;;
23044;SDS011;11690;51.716;23.066;2024-01-15T09:42:08;19.83;;;11.30;;
23044;SDS011;11690;51.716;23.066;2024-01-15T09:44:36;35.47;;;22.33;;
23044;SDS011;11690;51.716;23.066;2024-01-15T09:47:03;38.50;;;22.23;;
23044;SDS011;11690;51.716;23.066;2024-01-15T09:49:31;67.73;;;42.90;;
23044;SDS011;11690;51.716;23.066;2024-01-15T09:51:58;50.57;;;31.63;;
23044;SDS011;11690;51.716;23.066;2024-01-15T09:54:37;94.07;;;64.30;;
23044;SDS011;11690;51.716;23.066;2024-01-15T09:57:05;92.10;;;55.10;;
23044;SDS011;11690;51.716;23.066;2024-01-15T09:59:33;55.27;;;40.70;;
23044;SDS011;11690;51.716;23.066;2024-01-15T10:02:00;36.70;;;25.83;;
23044;SDS011;11690;51.716;23.066;2024-01-15T10:04:28;30.80;;;19.07;;
23044;SDS011;11690;51.716;23.066;2024-01-15T10:06:56;17.23;;;10.50;;
23044;SDS011;11690;51.716;23.066;2024-01-15T10:09:25;15.43;;;9.83;;
23044;SDS011;11690;51.716;23.066;2024-01-15T10:11:52;13.60;;;8.80;;
23044;SDS011;11690;51.716;23.066;2024-01-15T10:14:19;18.33;;;8.70;;
23044;SDS011;11690;51.716;23.066;2024-01-15T10:16:46;26.87;;;10.43;;
23044;SDS011;11690;51.716;23.066;2024-01-15T10:19:13;15.87;;;9.10;;
23044;SDS011;11690;51.716;23.066;2024-01-15T10:21:41;18.97;;;8.80;;
23044;SDS011;11690;51.716;23.066;2024-01-15T10:24:08;16.80;;;7.63;;
23044;SDS011;11690;51.716;23.066;2024-01-15T10:26:35;12.53;;;7.70;;
23044;SDS011;11690;51.716;23.066;2024-01-15T10:29:03;18.23;;;7.90;;
23044;SDS011;11690;51.716;23.066;2024-01-15T10:31:30;82.90;;;20.43;;
23044;SDS011;11690;51.716;23.066;2024-01-15T10:34:11;13.77;;;7.30;;
23044;SDS011;11690;51.716;23.066;2024-01-15T10:36:45;14.07;;;7.13;;
23044;SDS011;11690;51.716;23.066;2024-01-15T10:39:13;14.37;;;7.57;;
23044;SDS011;11690;51.716;23.066;2024-01-15T10:41:40;14.90;;;7.87;;
23044;SDS011;11690;51.716;23.066;2024-01-15T10:44:08;15.00;;;8.30;;
23044;SDS011;11690;51.716;23.066;2024-01-15T10:46:35;17.30;;;8.10;;
23044;SDS011;11690;51.716;23.066;2024-01-15T10:49:02;30.83;;;10.23;;
23044;SDS011;11690;51.716;23.066;2024-01-15T10:51:31;31.47;;;12.20;;
23044;SDS011;11690;51.716;23.066;2024-01-15T10:53:59;27.63;;;10.63;;
23044;SDS011;11690;51.716;23.066;2024-01-15T10:56:27;20.17;;;9.10;;
23044;SDS011;11690;51.716;23.066;2024-01-15T10:58:54;22.67;;;10.67;;
23044;SDS011;11690;51.716;23.066;2024-01-15T11:01:26;31.30;;;12.17;;
23044;SDS011;11690;51.716;23.066;2024-01-15T11:03:57;22.27;;;9.67;;
23044;SDS011;11690;51.716;23.066;2024-01-15T11:06:24;16.77;;;8.17;;
23044;SDS011;11690;51.716;23.066;2024-01-15T11:08:52;15.53;;;8.47;;
23044;SDS011;11690;51.716;23.066;2024-01-15T11:11:20;22.33;;;10.40;;
23044;SDS011;11690;51.716;23.066;2024-01-15T11:13:48;32.10;;;11.83;;
23044;SDS011;11690;51.716;23.066;2024-01-15T11:16:18;25.77;;;9.77;;
23044;SDS011;11690;51.716;23.066;2024-01-15T11:21:25;23.33;;;10.27;;
23044;SDS011;11690;51.716;23.066;2024-01-15T11:23:58;15.40;;;9.07;;
23044;SDS011;11690;51.716;23.066;2024-01-15T11:29:09;14.10;;;7.50;;
23044;SDS011;11690;51.716;23.066;2024-01-15T11:34:08;31.83;;;12.57;;
23044;SDS011;11690;51.716;23.066;2024-01-15T11:42:03;17.40;;;8.80;;
23044;SDS011;11690;51.716;23.066;2024-01-15T11:44:31;24.70;;;8.77;;
23044;SDS011;11690;51.716;23.066;2024-01-15T11:47:05;21.33;;;8.87;;
23044;SDS011;11690;51.716;23.066;2024-01-15T11:52:19;11.47;;;6.77;;
23044;SDS011;11690;51.716;23.066;2024-01-15T12:00:22;18.23;;;8.50;;
23044;SDS011;11690;51.716;23.066;2024-01-15T12:02:49;14.90;;;7.97;;
23044;SDS011;11690;51.716;23.066;2024-01-15T12:05:18;14.83;;;8.67;;
23044;SDS011;11690;51.716;23.066;2024-01-15T12:07:46;25.03;;;10.93;;
23044;SDS011;11690;51.716;23.066;2024-01-15T12:10:19;19.30;;;9.80;;
23044;SDS011;11690;51.716;23.066;2024-01-15T12:13:00;15.93;;;8.50;;
23044;SDS011;11690;51.716;23.066;2024-01-15T12:15:32;18.23;;;11.00;;
23044;SDS011;11690;51.716;23.066;2024-01-15T12:18:00;56.07;;;15.73;;
23044;SDS011;11690;51.716;23.066;2024-01-15T12:20:30;27.17;;;10.47;;
23044;SDS011;11690;51.716;23.066;2024-01-15T12:22:58;18.23;;;9.43;;
23044;SDS011;11690;51.716;23.066;2024-01-15T12:25:30;17.77;;;9.67;;
23044;SDS011;11690;51.716;23.066;2024-01-15T12:27:57;13.37;;;7.50;;
23044;SDS011;11690;51.716;23.066;2024-01-15T12:30:26;11.90;;;7.23;;
23044;SDS011;11690;51.716;23.066;2024-01-15T12:32:54;13.10;;;6.77;;
23044;SDS011;11690;51.716;23.066;2024-01-15T12:35:23;14.47;;;7.80;;
23044;SDS011;11690;51.716;23.066;2024-01-15T12:37:50;13.93;;;8.10;;
23044;SDS011;11690;51.716;23.066;2024-01-15T12:40:18;15.93;;;8.33;;
23044;SDS011;11690;51.716;23.066;2024-01-15T12:42:46;22.30;;;9.77;;
23044;SDS011;11690;51.716;23.066;2024-01-15T12:45:13;13.40;;;6.80;;
23044;SDS011;11690;51.716;23.066;2024-01-15T12:47:41;19.13;;;7.70;;
23044;SDS011;11690;51.716;23.066;2024-01-15T12:50:09;18.53;;;11.43;;
23044;SDS011;11690;51.716;23.066;2024-01-15T12:52:45;24.77;;;16.00;;
23044;SDS011;11690;51.716;23.066;2024-01-15T12:55:13;27.60;;;10.37;;
23044;SDS011;11690;51.716;23.066;2024-01-15T12:57:42;24.63;;;9.60;;
23044;SDS011;11690;51.716;23.066;2024-01-15T13:00:09;12.50;;;8.43;;
23044;SDS011;11690;51.716;23.066;2024-01-15T13:02:41;12.27;;;6.63;;
23044;SDS011;11690;51.716;23.066;2024-01-15T13:05:10;12.67;;;6.30;;
23044;SDS011;11690;51.716;23.066;2024-01-15T13:07:39;11.87;;;6.00;;
23044;SDS011;11690;51.716;23.066;2024-01-15T13:10:07;15.13;;;6.93;;
23044;SDS011;11690;51.716;23.066;2024-01-15T13:12:37;12.73;;;6.40;;
23044;SDS011;11690;51.716;23.066;2024-01-15T13:15:04;15.13;;;6.80;;
23044;SDS011;11690;51.716;23.066;2024-01-15T13:17:32;18.23;;;7.77;;
23044;SDS011;11690;51.716;23.066;2024-01-15T13:19:59;14.87;;;7.47;;
23044;SDS011;11690;51.716;23.066;2024-01-15T13:22:27;10.17;;;6.97;;
23044;SDS011;11690;51.716;23.066;2024-01-15T13:24:59;18.80;;;10.00;;
23044;SDS011;11690;51.716;23.066;2024-01-15T13:27:27;27.30;;;14.73;;
23044;SDS011;11690;51.716;23.066;2024-01-15T13:29:55;16.03;;;8.27;;
23044;SDS011;11690;51.716;23.066;2024-01-15T13:32:27;21.43;;;11.60;;
23044;SDS011;11690;51.716;23.066;2024-01-15T13:34:56;24.70;;;13.23;;
23044;SDS011;11690;51.716;23.066;2024-01-15T13:37:24;28.80;;;17.37;;
23044;SDS011;11690;51.716;23.066;2024-01-15T13:39:52;26.27;;;13.93;;
23044;SDS011;11690;51.716;23.066;2024-01-15T13:42:20;16.30;;;7.93;;
23044;SDS011;11690;51.716;23.066;2024-01-15T13:44:50;15.73;;;8.60;;
23044;SDS011;11690;51.716;23.066;2024-01-15T13:47:18;12.83;;;7.10;;
23044;SDS011;11690;51.716;23.066;2024-01-15T13:49:46;13.43;;;6.93;;
23044;SDS011;11690;51.716;23.066;2024-01-15T13:52:13;18.13;;;7.67;;
23044;SDS011;11690;51.716;23.066;2024-01-15T13:54:41;23.20;;;8.17;;
23044;SDS011;11690;51.716;23.066;2024-01-15T13:57:16;12.80;;;6.77;;
23044;SDS011;11690;51.716;23.066;2024-01-15T13:59:45;20.53;;;7.17;;
23044;SDS011;11690;51.716;23.066;2024-01-15T14:02:13;20.00;;;8.30;;
23044;SDS011;11690;51.716;23.066;2024-01-15T14:04:47;20.63;;;7.63;;
23044;SDS011;11690;51.716;23.066;2024-01-15T14:07:15;32.97;;;10.90;;
23044;SDS011;11690;51.716;23.066;2024-01-15T14:09:42;13.03;;;7.23;;
23044;SDS011;11690;51.716;23.066;2024-01-15T14:12:10;11.27;;;6.20;;
23044;SDS011;11690;51.716;23.066;2024-01-15T14:14:38;18.93;;;9.40;;
23044;SDS011;11690;51.716;23.066;2024-01-15T14:17:07;14.20;;;7.17;;
23044;SDS011;11690;51.716;23.066;2024-01-15T14:19:34;17.07;;;7.03;;
23044;SDS011;11690;51.716;23.066;2024-01-15T14:22:02;12.63;;;6.80;;
23044;SDS011;11690;51.716;23.066;2024-01-15T14:24:30;10.47;;;6.07;;
23044;SDS011;11690;51.716;23.066;2024-01-15T14:26:57;26.20;;;10.20;;
23044;SDS011;11690;51.716;23.066;2024-01-15T14:29:25;23.07;;;8.60;;
23044;SDS011;11690;51.716;23.066;2024-01-15T14:31:53;16.70;;;10.13;;
23044;SDS011;11690;51.716;23.066;2024-01-15T14:34:21;38.07;;;22.23;;
23044;SDS011;11690;51.716;23.066;2024-01-15T14:36:50;28.30;;;8.63;;
23044;SDS011;11690;51.716;23.066;2024-01-15T14:39:21;21.03;;;8.67;;